Flight Track Log - Related Links

Times and Time Zones

All times are in EDT time to prevent confusion due to time zone crossing. See the N273SK flight status page for this flight to view local times or setup timezone preferences in your user account.

Time Position Orientation Groundspeed Altitude Reporting Facility
EDT Latitude Longitude Course Direction KTS MPH feet Rate Location/Type
Sun 09:23:15 AM 40.5794 -73.8642 159° South 194 223 4,500  Level New York Center
Sun 09:24:15 AM 40.5522 -73.7919 116° Southeast 172 198 6,500 1,289 Climbing New York Center
Sun 09:25:00 AM 40.4268 -73.5769 143° Southeast  Level FlightAware Approximate
Sun 09:25:16 AM 40.4817 -73.7778 171° South 239 275 7,100  Level New York Center
Sun 09:26:00 AM 40.3760 -73.5260 143° Southeast  Level FlightAware Approximate
Sun 09:26:16 AM 40.4183 -73.8133 203° Southwest 239 275 7,100  Level New York Center
Sun 09:27:00 AM 40.3217 -73.4884 143° Southeast  Level FlightAware Approximate
Sun 09:27:16 AM 40.3697 -73.7539 137° Southeast 208 239 7,100  Level New York Center
Sun 09:28:00 AM 40.2776 -73.4388 159° South  Level FlightAware Approximate
Sun 09:28:17 AM 40.4047 -73.6875 55° Northeast 168 193 7,500  Level New York Center
Sun 09:29:17 AM 40.3697 -73.5906 115° Southeast 220 253 9,900 1,983 Climbing New York Center
Sun 09:30:15 AM 40.3019 -73.5497 155° Southeast 241 277 11,400 1,815 Climbing New York Center
Sun 09:31:16 AM 40.2111 -73.5053 160° South 278 320 13,500 1,854 Climbing New York Center
Sun 09:32:18 AM 40.1339 -73.5103 183° South 302 348 15,200 1,866 Climbing New York Center
Sun 09:33:15 AM 40.0536 -73.5642 207° Southwest 302 348 17,200 1,424 Climbing New York Center
Sun 09:34:16 AM 39.9836 -73.6128 208° Southwest 308 354 18,000 1,591 Climbing New York Center
Sun 09:36:16 AM 39.8219 -73.7275 209° Southwest 312 359 22,000 1,867 Climbing Washington Center
Sun 09:37:16 AM 39.7456 -73.7806 208° Southwest 312 359 23,600 1,450 Climbing Washington Center
Sun 09:38:16 AM 39.6694 -73.8367 210° Southwest 312 359 24,900 1,250 Climbing Washington Center
Sun 09:39:16 AM 39.5911 -73.8922 209° Southwest 318 366 26,100 1,050 Climbing Washington Center
Sun 09:40:16 AM 39.5186 -73.9425 208° Southwest 323 372 27,000 900 Climbing Washington Center
Sun 09:41:16 AM 39.4403 -73.9981 209° Southwest 323 372 27,900 550 Climbing Washington Center
Sun 09:42:16 AM 39.3642 -74.0669 215° Southwest 328 377 28,100 50 Climbing Washington Center
Sun 09:43:16 AM 39.2922 -74.1489 221° Southwest 341 392 28,000 -50 Descending Washington Center
Sun 09:44:16 AM 39.2181 -74.2281 220° Southwest 346 398 28,000  Level Washington Center
Sun 09:45:16 AM 39.1461 -74.3069 220° Southwest 351 404 28,000  Level Washington Center
Sun 09:46:16 AM 39.0717 -74.3858 219° Southwest 351 404 28,000  Level Washington Center
Sun 09:47:16 AM 38.9997 -74.4672 221° Southwest 346 398 28,000  Level Washington Center
Sun 09:48:16 AM 38.9272 -74.5431 219° Southwest 351 404 28,000  Level Washington Center
Sun 09:49:16 AM 38.8531 -74.6239 220° Southwest 351 404 28,000  Level Washington Center
Sun 09:50:16 AM 38.7828 -74.7022 221° Southwest 351 404 28,000  Level Washington Center
Sun 09:51:16 AM 38.7103 -74.7803 220° Southwest 351 404 28,000  Level Washington Center
Sun 09:52:16 AM 38.6378 -74.8556 219° Southwest 351 404 28,000  Level Washington Center
Sun 09:53:16 AM 38.5633 -74.9331 219° Southwest 351 404 28,000  Level Washington Center
Sun 09:54:16 AM 38.4886 -75.0161 221° Southwest 351 404 28,000  Level Washington Center
Sun 09:55:16 AM 38.4139 -75.0883 217° Southwest 351 404 28,000  Level Washington Center
Sun 09:56:17 AM 38.3392 -75.1733 222° Southwest 351 404 28,000  Level Washington Center
Sun 09:57:16 AM 38.2603 -75.2586 220° Southwest 351 404 28,000  Level Washington Center
Sun 09:58:16 AM 38.1853 -75.3381 220° Southwest 351 404 28,000  Level Washington Center
Sun 09:59:16 AM 38.1103 -75.4150 219° Southwest 351 404 28,000  Level Washington Center
Sun 10:00:16 AM 38.0314 -75.4864 215° Southwest 351 404 28,000  Level Washington Center
Sun 10:01:17 AM 37.9478 -75.5522 212° Southwest 351 404 28,000  Level Washington Center
Sun 10:02:16 AM 37.8644 -75.6156 211° Southwest 357 411 28,000  Level Washington Center
Sun 10:03:16 AM 37.7789 -75.6786 210° Southwest 357 411 28,000  Level Washington Center
Sun 10:04:17 AM 37.6933 -75.7414 210° Southwest 357 411 28,000  Level Washington Center
Sun 10:05:16 AM 37.6078 -75.8067 211° Southwest 357 411 28,000  Level Washington Center
Sun 10:06:16 AM 37.5222 -75.8667 209° Southwest 357 411 28,000  Level Washington Center
Sun 10:07:16 AM 37.4303 -75.9161 203° Southwest 357 411 28,000  Level Washington Center
Sun 10:08:16 AM 37.3403 -75.9681 205° Southwest 357 411 28,000  Level Washington Center
Sun 10:09:16 AM 37.2464 -76.0172 203° Southwest 357 411 28,000  Level Washington Center
Sun 10:10:16 AM 37.1522 -76.0661 202° Southwest 362 417 28,000  Level Washington Center
Sun 10:11:16 AM 37.0603 -76.1150 203° Southwest 362 417 28,000  Level Washington Center
Sun 10:12:17 AM 36.9661 -76.1611 201° Southwest 357 411 28,000  Level Washington Center
Sun 10:13:16 AM 36.8700 -76.2175 205° Southwest 367 422 28,000  Level Washington Center
Sun 10:14:16 AM 36.7925 -76.2897 217° Southwest 367 422 28,000  Level Washington Center
Sun 10:15:17 AM 36.7128 -76.3642 217° Southwest 362 417 28,000  Level Washington Center
Sun 10:16:16 AM 36.6328 -76.4383 217° Southwest 362 417 28,000  Level Washington Center
Sun 10:17:17 AM 36.5531 -76.5125 217° Southwest 362 417 28,000  Level Washington Center
Sun 10:18:16 AM 36.4733 -76.5811 215° Southwest 362 417 28,000  Level Washington Center
Sun 10:19:16 AM 36.3956 -76.6525 216° Southwest 362 417 28,000  Level Washington Center
Sun 10:20:16 AM 36.3133 -76.7236 215° Southwest 362 417 28,000  Level Washington Center
Sun 10:21:16 AM 36.2356 -76.7944 216° Southwest 362 417 28,000  Level Washington Center
Sun 10:22:16 AM 36.1556 -76.8628 215° Southwest 362 417 28,000  Level Washington Center
Sun 10:23:17 AM 36.0775 -76.9336 216° Southwest 362 417 28,000  Level Washington Center
Sun 10:24:16 AM 35.9975 -77.0042 216° Southwest 362 417 28,000  Level Washington Center
Sun 10:25:16 AM 35.9175 -77.0744 215° Southwest 362 417 28,000  Level Washington Center
Sun 10:26:16 AM 35.8497 -77.1397 218° Southwest 356 410 28,000  Level Washington Center
Sun 10:27:16 AM 35.7694 -77.2100 215° Southwest 350 403 28,000  Level Washington Center
Sun 10:28:16 AM 35.6914 -77.2825 217° Southwest 350 403 28,000  Level Washington Center
Sun 10:29:17 AM 35.6153 -77.3575 219° Southwest 350 403 28,000  Level Washington Center
Sun 10:30:16 AM 35.5389 -77.4325 219° Southwest 350 403 28,000  Level Washington Center
Sun 10:31:16 AM 35.4628 -77.5072 219° Southwest 350 403 28,000  Level Washington Center
Sun 10:32:16 AM 35.3864 -77.5844 220° Southwest 355 409 28,000  Level Washington Center
Sun 10:33:16 AM 35.3078 -77.6614 219° Southwest 360 414 28,000  Level Washington Center
Sun 10:34:16 AM 35.2314 -77.7381 219° Southwest 360 414 28,000  Level Washington Center
Sun 10:35:17 AM 35.1547 -77.8122 218° Southwest 360 414 28,000  Level Washington Center
Sun 10:36:16 AM 35.0783 -77.8864 218° Southwest 360 414 28,000  Level Washington Center
Sun 10:37:16 AM 34.9994 -77.9653 219° Southwest 360 414 28,000  Level Washington Center
Sun 10:38:17 AM 34.9231 -78.0389 218° Southwest 360 414 28,000  Level Washington Center
Sun 10:39:17 AM 34.8378 -78.1250 220° Southwest 360 414 28,000  Level Washington Center
Sun 10:40:16 AM 34.7608 -78.2061 221° Southwest 360 414 28,000  Level Washington Center
Sun 10:43:32 AM 34.5172 -78.4400 218° Southwest 359 413 28,000  Level Jacksonville Center
Sun 10:44:32 AM 34.4386 -78.5172 219° Southwest 366 421 28,000  Level Jacksonville Center
Sun 10:45:32 AM 34.3619 -78.5964 220° Southwest 366 421 28,000  Level Jacksonville Center
Sun 10:46:32 AM 34.2875 -78.6731 220° Southwest 361 415 28,000 -200 Level Jacksonville Center
Sun 10:47:32 AM 34.2172 -78.7542 224° Southwest 361 415 27,600 -550 Descending Jacksonville Center
Sun 10:48:32 AM 34.1447 -78.8356 223° Southwest 356 410 26,900 -800 Descending Jacksonville Center
Sun 10:49:32 AM 34.0742 -78.9164 224° Southwest 356 410 26,000 -950 Descending Jacksonville Center
Sun 10:50:32 AM 34.0036 -78.9947 223° Southwest 356 410 25,000 -1,200 Descending Jacksonville Center
Sun 10:51:32 AM 33.9311 -79.0756 223° Southwest 356 410 23,600 -1,550 Descending Jacksonville Center
Sun 10:52:32 AM 33.8625 -79.1561 224° Southwest 356 410 21,900 -1,700 Descending Jacksonville Center
Sun 10:53:32 AM 33.7917 -79.2342 222° Southwest 356 410 20,200 -1,850 Descending Jacksonville Center
Sun 10:54:32 AM 33.7081 -79.2975 212° Southwest 342 394 18,200 -1,850 Descending Jacksonville Center
Sun 10:55:32 AM 33.6283 -79.3581 212° Southwest 336 387 16,500 -1,850 Descending Jacksonville Center
Sun 10:56:32 AM 33.5508 -79.4186 213° Southwest 331 381 14,500 -1,950 Descending Jacksonville Center
Sun 10:57:32 AM 33.4728 -79.4714 209° Southwest 331 381 12,600 -1,550 Descending Jacksonville Center
Sun 10:58:32 AM 33.4014 -79.5289 214° Southwest 331 381 11,400 -800 Descending Jacksonville Center
Sun 10:59:32 AM 33.3278 -79.5839 212° Southwest 324 373 11,000 -400 Descending Jacksonville Center
Sun 11:00:32 AM 33.2539 -79.6389 212° Southwest 318 366 10,600 -850 Descending Jacksonville Center
Sun 11:01:32 AM 33.1883 -79.6858 211° Southwest 300 345 9,300 -1,200 Descending Jacksonville Center
Sun 11:02:32 AM 33.1181 -79.7081 195° South 278 320 8,200 -1,050 Descending Jacksonville Center
Sun 11:03:32 AM 33.0475 -79.7281 193° South 263 303 7,200 -1,100 Descending Jacksonville Center
Sun 11:04:32 AM 32.9792 -79.7453 192° South 258 297 6,000 -1,200 Descending Jacksonville Center
Sun 11:05:32 AM 32.9169 -79.7672 196° South 253 291 4,800 -1,150 Descending Jacksonville Center
Sun 11:06:32 AM 32.8725 -79.8233 227° Southwest 233 268 3,700 -1,100 Descending Jacksonville Center

Login

Don't have an account? Register now (free) for customized features, flight alerts, and more!